createdAt,value
2018-12-27T00:00:08.446Z,-1.24
2018-12-27T00:01:06.154Z,-1.27
2018-12-27T00:02:05.634Z,-1.3
2018-12-27T00:03:05.606Z,-1.29
2018-12-27T00:04:05.621Z,-1.32
2018-12-27T00:05:05.639Z,-1.25
2018-12-27T00:06:06.915Z,-1.22
2018-12-27T00:07:06.142Z,-1.23
2018-12-27T00:08:05.942Z,-1.23
2018-12-27T00:09:05.604Z,-1.22
2018-12-27T00:10:05.597Z,-1.26
2018-12-27T00:11:05.584Z,-1.23
2018-12-27T00:12:05.728Z,-1.21
2018-12-27T00:13:05.579Z,-1.17
2018-12-27T00:14:05.603Z,-1.15
2018-12-27T00:15:05.617Z,-1.15
2018-12-27T00:16:05.773Z,-1.14
2018-12-27T00:17:05.814Z,-1.12
2018-12-27T00:18:05.851Z,-1.11
2018-12-27T00:19:05.783Z,-1.14
2018-12-27T00:20:05.659Z,-1.14
2018-12-27T00:21:05.640Z,-1.12
2018-12-27T00:22:05.817Z,-1.13
2018-12-27T00:23:05.603Z,-1.09
2018-12-27T00:24:06.021Z,-1.11
2018-12-27T00:25:05.568Z,-1.13
2018-12-27T00:26:05.778Z,-1.16
2018-12-27T00:27:05.617Z,-1.17
2018-12-27T00:28:06.379Z,-1.2
2018-12-27T00:29:05.661Z,-1.18
2018-12-27T00:30:05.599Z,-1.16
2018-12-27T00:31:05.572Z,-1.13
2018-12-27T00:32:05.681Z,-1.06
2018-12-27T00:33:05.906Z,-1.05
2018-12-27T00:34:06.074Z,-1.08
2018-12-27T00:35:05.710Z,-1.06
2018-12-27T00:36:05.747Z,-1.12
2018-12-27T00:37:05.777Z,-1.14
2018-12-27T00:38:05.758Z,-1.16
2018-12-27T00:39:05.694Z,-1.18
2018-12-27T00:40:06.060Z,-1.19
2018-12-27T00:41:05.677Z,-1.2
2018-12-27T00:42:05.723Z,-1.2
2018-12-27T00:43:05.910Z,-1.21
2018-12-27T00:44:07.882Z,-1.18
2018-12-27T00:45:06.091Z,-1.16
2018-12-27T00:46:05.795Z,-1.2
2018-12-27T00:47:05.611Z,-1.22
2018-12-27T00:48:05.728Z,-1.22
2018-12-27T00:49:05.596Z,-1.15
2018-12-27T00:50:05.770Z,-1.21
2018-12-27T00:51:05.751Z,-1.25
2018-12-27T00:52:05.528Z,-1.27
2018-12-27T00:53:05.621Z,-1.25
2018-12-27T00:54:05.688Z,-1.24
2018-12-27T00:55:05.595Z,-1.24
2018-12-27T00:56:05.601Z,-1.21
2018-12-27T00:57:05.623Z,-1.24
2018-12-27T00:58:05.628Z,-1.27
2018-12-27T00:59:05.596Z,-1.3
2018-12-27T01:00:05.593Z,-1.33
2018-12-27T01:01:05.734Z,-1.3
2018-12-27T01:02:05.832Z,-1.32
2018-12-27T01:03:11.711Z,-1.29
2018-12-27T01:04:05.933Z,-1.26
2018-12-27T01:05:05.724Z,-1.26
2018-12-27T01:06:05.787Z,-1.27
2018-12-27T01:07:05.782Z,-1.25
2018-12-27T01:08:05.523Z,-1.27
2018-12-27T01:09:05.643Z,-1.31
2018-12-27T01:10:05.531Z,-1.31
2018-12-27T01:11:05.763Z,-1.31
2018-12-27T01:12:05.522Z,-1.3
2018-12-27T01:13:05.530Z,-1.32
2018-12-27T01:14:05.837Z,-1.31
2018-12-27T01:15:05.753Z,-1.28
2018-12-27T01:16:05.559Z,-1.33
2018-12-27T01:17:05.503Z,-1.29
2018-12-27T01:18:05.576Z,-1.28
2018-12-27T01:19:05.676Z,-1.24
2018-12-27T01:20:05.654Z,-1.21
2018-12-27T01:21:05.576Z,-1.22
2018-12-27T01:22:05.531Z,-1.18
2018-12-27T01:23:06.375Z,-1.2
2018-12-27T01:24:05.577Z,-1.18
2018-12-27T01:25:05.763Z,-1.15
2018-12-27T01:26:05.694Z,-1.2
2018-12-27T01:27:05.635Z,-1.19
2018-12-27T01:28:05.659Z,-1.19
2018-12-27T01:29:05.553Z,-1.13
2018-12-27T01:30:06.367Z,-1.2
2018-12-27T01:31:05.861Z,-1.17
2018-12-27T01:32:05.742Z,-1.11
2018-12-27T01:33:05.555Z,-1.16
2018-12-27T01:34:05.548Z,-1.19
2018-12-27T01:35:05.486Z,-1.15
2018-12-27T01:36:05.629Z,-1.16
2018-12-27T01:37:05.533Z,-1.15
2018-12-27T01:38:05.545Z,-1.15
2018-12-27T01:39:05.519Z,-1.15
2018-12-27T01:40:05.529Z,-1.21
2018-12-27T01:41:05.492Z,-1.11
2018-12-27T01:42:05.565Z,-1.14
2018-12-27T01:43:05.552Z,-1.14
2018-12-27T01:44:05.790Z,-1.19
2018-12-27T01:45:05.475Z,-1.22
2018-12-27T01:46:05.543Z,-1.22
2018-12-27T01:47:05.455Z,-1.16
2018-12-27T01:48:05.503Z,-1.16
2018-12-27T01:49:05.543Z,-1.16
2018-12-27T01:50:05.798Z,-1.14
2018-12-27T01:51:05.516Z,-1.17
2018-12-27T01:52:05.626Z,-1.14
2018-12-27T01:53:05.464Z,-1.11
2018-12-27T01:54:05.622Z,-1.18
2018-12-27T01:55:05.475Z,-1.19
2018-12-27T01:56:05.566Z,-1.2
2018-12-27T01:57:05.549Z,-1.22
2018-12-27T01:58:05.573Z,-1.19
2018-12-27T01:59:05.593Z,-1.22
2018-12-27T02:00:05.686Z,-1.2
2018-12-27T02:01:06.039Z,-1.2
2018-12-27T02:02:05.443Z,-1.25
2018-12-27T02:03:05.454Z,-1.24
2018-12-27T02:04:05.955Z,-1.23
2018-12-27T02:05:05.791Z,-1.2
2018-12-27T02:06:05.486Z,-1.23
2018-12-27T02:07:05.586Z,-1.19
2018-12-27T02:08:06.314Z,-1.21
2018-12-27T02:09:05.680Z,-1.2
2018-12-27T02:10:05.926Z,-1.19
2018-12-27T02:11:06.089Z,-1.22
2018-12-27T02:12:05.682Z,-1.19
2018-12-27T02:13:05.557Z,-1.19
2018-12-27T02:14:05.836Z,-1.09
2018-12-27T02:15:05.691Z,-1.12
2018-12-27T02:16:05.496Z,-1.08
2018-12-27T02:17:05.478Z,-1.1
2018-12-27T02:18:05.657Z,-1.16
2018-12-27T02:19:05.663Z,-1.16
2018-12-27T02:20:05.537Z,-1.16
2018-12-27T02:21:05.855Z,-1.11
2018-12-27T02:22:05.612Z,-1.09
2018-12-27T02:23:06.278Z,-1.12
2018-12-27T02:24:05.671Z,-1.11
2018-12-27T02:25:05.543Z,-1.05
2018-12-27T02:26:05.478Z,-1.09
2018-12-27T02:27:05.926Z,-1.07
2018-12-27T02:28:05.510Z,-1.07
2018-12-27T02:29:05.673Z,-1.09
2018-12-27T02:30:05.890Z,-1.1
2018-12-27T02:31:05.819Z,-1.12
2018-12-27T02:32:05.435Z,-1.12
2018-12-27T02:33:06.249Z,-1.1
2018-12-27T02:34:05.608Z,-1.06
2018-12-27T02:35:05.427Z,-1.08
2018-12-27T02:36:05.698Z,-1.13
2018-12-27T02:37:05.774Z,-1.16
2018-12-27T02:38:05.470Z,-1.18
2018-12-27T02:39:05.419Z,-1.16
2018-12-27T02:40:06.224Z,-1.15
2018-12-27T02:41:05.538Z,-1.2
2018-12-27T02:42:05.834Z,-1.11
2018-12-27T02:43:05.489Z,-1.16
2018-12-27T02:44:05.840Z,-1.14
2018-12-27T02:45:06.237Z,-1.12
2018-12-27T02:46:06.275Z,-1.11
2018-12-27T02:47:05.485Z,-1.11
2018-12-27T02:48:05.469Z,-1.17
2018-12-27T02:49:05.490Z,-1.2
2018-12-27T02:50:05.580Z,-1.11
2018-12-27T02:51:05.582Z,-1.16
2018-12-27T02:52:05.408Z,-1.16
2018-12-27T02:53:05.523Z,-1.13
2018-12-27T02:54:05.619Z,-1.14
2018-12-27T02:55:05.527Z,-1.14
2018-12-27T02:56:05.418Z,-1.16
2018-12-27T02:57:05.461Z,-1.18
2018-12-27T02:58:05.644Z,-1.12
2018-12-27T02:59:05.901Z,-1.23
2018-12-27T03:00:05.444Z,-1.28
2018-12-27T03:01:05.452Z,-1.24
2018-12-27T03:02:05.894Z,-1.24
2018-12-27T03:03:05.634Z,-1.21
2018-12-27T03:04:05.695Z,-1.19
2018-12-27T03:05:05.360Z,-1.18
2018-12-27T03:06:05.765Z,-1.19
2018-12-27T03:07:05.446Z,-1.27
2018-12-27T03:08:05.568Z,-1.23
2018-12-27T03:09:05.610Z,-1.27
2018-12-27T03:10:05.770Z,-1.3
2018-12-27T03:11:05.705Z,-1.32
2018-12-27T03:12:05.531Z,-1.33
2018-12-27T03:13:05.921Z,-1.28
2018-12-27T03:14:05.842Z,-1.39
2018-12-27T03:15:06.237Z,-1.45
2018-12-27T03:16:05.516Z,-1.42
2018-12-27T03:17:05.380Z,-1.38
2018-12-27T03:18:05.531Z,-1.41
2018-12-27T03:19:05.543Z,-1.4
2018-12-27T03:20:05.409Z,-1.35
2018-12-27T03:21:05.676Z,-1.33
2018-12-27T03:22:05.375Z,-1.37
2018-12-27T03:23:05.375Z,-1.27
2018-12-27T03:24:05.454Z,-1.27
2018-12-27T03:25:05.389Z,-1.42
2018-12-27T03:26:05.385Z,-1.36
2018-12-27T03:27:05.682Z,-1.28
2018-12-27T03:28:05.457Z,-1.29
2018-12-27T03:29:05.318Z,-1.41
2018-12-27T03:30:05.396Z,-1.26
2018-12-27T03:31:05.747Z,-1.28
2018-12-27T03:32:05.618Z,-1.26
2018-12-27T03:33:05.405Z,-1.27
2018-12-27T03:34:05.373Z,-1.23
2018-12-27T03:35:05.398Z,-1.27
2018-12-27T03:36:05.388Z,-1.28
2018-12-27T03:37:05.348Z,-1.25
2018-12-27T03:38:05.428Z,-1.26
2018-12-27T03:39:05.639Z,-1.2
2018-12-27T03:40:05.352Z,-1.16
2018-12-27T03:41:05.573Z,-1.2
2018-12-27T03:42:05.437Z,-1.15
2018-12-27T03:43:05.518Z,-1.15
2018-12-27T03:44:05.399Z,-1.08
2018-12-27T03:45:05.821Z,-1.08
2018-12-27T03:46:05.759Z,-1.08
2018-12-27T03:47:05.901Z,-1.06
2018-12-27T03:48:05.533Z,-1.05
2018-12-27T03:49:05.665Z,-1.07
2018-12-27T03:50:05.553Z,-1.09
2018-12-27T03:51:05.308Z,-1.05
2018-12-27T03:52:05.649Z,-1.05
2018-12-27T03:53:05.744Z,-1.19
2018-12-27T03:54:05.732Z,-1.11
2018-12-27T03:55:05.325Z,-1.04
2018-12-27T03:56:05.623Z,-1.04
2018-12-27T03:57:05.529Z,-1.06
2018-12-27T03:58:05.427Z,-1.03
2018-12-27T03:59:05.303Z,-0.99
2018-12-27T04:00:06.134Z,-1.05
2018-12-27T04:01:05.566Z,-0.99
2018-12-27T04:02:05.667Z,-1.01
2018-12-27T04:03:05.521Z,-1.09
2018-12-27T04:04:05.378Z,-1.08
2018-12-27T04:05:05.724Z,-1.07
2018-12-27T04:06:05.489Z,-1.02
2018-12-27T04:07:05.516Z,-1
2018-12-27T04:08:05.539Z,-0.99
2018-12-27T04:09:05.345Z,-0.99
2018-12-27T04:10:05.587Z,-0.98
2018-12-27T04:11:05.480Z,-0.98
2018-12-27T04:12:05.483Z,-1.04
2018-12-27T04:13:06.021Z,-1.03
2018-12-27T04:14:05.512Z,-1.01
2018-12-27T04:15:05.291Z,-0.96
2018-12-27T04:16:05.288Z,-0.95
2018-12-27T04:17:05.379Z,-0.94
2018-12-27T04:18:05.286Z,-0.98
2018-12-27T04:19:05.342Z,-0.9
2018-12-27T04:20:05.381Z,-0.92
2018-12-27T04:21:05.391Z,-0.93
2018-12-27T04:22:05.606Z,-0.93
2018-12-27T04:23:05.294Z,-0.88
2018-12-27T04:24:05.432Z,-0.88
2018-12-27T04:25:06.085Z,-0.9
2018-12-27T04:26:05.321Z,-0.9
2018-12-27T04:27:05.484Z,-0.88
2018-12-27T04:28:05.336Z,-0.95
2018-12-27T04:29:05.581Z,-1
2018-12-27T04:30:05.692Z,-0.97
2018-12-27T04:31:06.098Z,-0.98
2018-12-27T04:32:06.097Z,-1.01
2018-12-27T04:33:05.400Z,-1.06
2018-12-27T04:34:10.117Z,-1.04
2018-12-27T04:35:05.335Z,-1.06
2018-12-27T04:36:05.244Z,-1.05
2018-12-27T04:37:05.332Z,-1.05
2018-12-27T04:38:05.745Z,-1.02
2018-12-27T04:39:05.644Z,-1.01
2018-12-27T04:40:05.345Z,-1.01
2018-12-27T04:41:06.051Z,-1.04
2018-12-27T04:42:05.536Z,-1.03
2018-12-27T04:43:05.396Z,-1.05
2018-12-27T04:44:05.230Z,-1.06
2018-12-27T04:45:05.390Z,-1.08
2018-12-27T04:46:05.488Z,-1.08
2018-12-27T04:47:05.457Z,-1.05
2018-12-27T04:48:05.453Z,-1.08
2018-12-27T04:49:05.689Z,-1.09
2018-12-27T04:50:05.314Z,-1.01
2018-12-27T04:51:05.273Z,-0.94
2018-12-27T04:52:05.438Z,-0.99
2018-12-27T04:53:05.766Z,-1.03
2018-12-27T04:54:05.205Z,-1.08
2018-12-27T04:55:05.179Z,-1.08
2018-12-27T04:56:05.384Z,-1.09
2018-12-27T04:57:05.385Z,-1.11
2018-12-27T04:58:05.240Z,-1.12
2018-12-27T04:59:05.247Z,-1.14
2018-12-27T05:00:06.162Z,-1.08
2018-12-27T05:01:05.239Z,-1.02
2018-12-27T05:02:05.195Z,-1.08
2018-12-27T05:03:05.221Z,-1.11
2018-12-27T05:04:05.317Z,-1.07
2018-12-27T05:05:05.212Z,-1.11
2018-12-27T05:06:05.534Z,-1.09
2018-12-27T05:07:05.288Z,-1.1
2018-12-27T05:08:05.238Z,-1.08
2018-12-27T05:09:05.297Z,-1.16
2018-12-27T05:10:05.238Z,-1.18
2018-12-27T05:11:05.344Z,-1.22
2018-12-27T05:12:05.200Z,-1.23
2018-12-27T05:13:05.543Z,-1.19
2018-12-27T05:14:05.248Z,-1.17
2018-12-27T05:15:05.241Z,-1.15
2018-12-27T05:16:05.207Z,-1.08
2018-12-27T05:17:05.266Z,-1.09
2018-12-27T05:18:05.191Z,-1.11
2018-12-27T05:19:05.200Z,-1.14
2018-12-27T05:20:05.561Z,-1.23
2018-12-27T05:21:05.230Z,-1.23
2018-12-27T05:22:05.232Z,-1.18
2018-12-27T05:23:05.464Z,-1.14
2018-12-27T05:24:05.198Z,-1.27
2018-12-27T05:25:05.686Z,-1.28
2018-12-27T05:26:05.206Z,-1.24
2018-12-27T05:27:05.510Z,-1.18
2018-12-27T05:28:05.263Z,-1.21
2018-12-27T05:29:05.524Z,-1.36
2018-12-27T05:30:05.482Z,-1.47
2018-12-27T05:31:05.385Z,-1.54
2018-12-27T05:32:05.390Z,-1.5
2018-12-27T05:33:05.278Z,-1.42
2018-12-27T05:34:05.233Z,-1.46
2018-12-27T05:35:05.294Z,-1.41
2018-12-27T05:36:05.198Z,-1.36
2018-12-27T05:37:05.700Z,-1.42
2018-12-27T05:38:05.670Z,-1.4
2018-12-27T05:39:05.541Z,-1.33
2018-12-27T05:40:05.529Z,-1.36
2018-12-27T05:41:05.211Z,-1.34
2018-12-27T05:42:05.290Z,-1.33
2018-12-27T05:43:05.502Z,-1.33
2018-12-27T05:44:05.473Z,-1.3
2018-12-27T05:45:05.781Z,-1.31
2018-12-27T05:46:05.253Z,-1.3
2018-12-27T05:47:05.615Z,-1.33
2018-12-27T05:48:05.208Z,-1.33
2018-12-27T05:49:05.435Z,-1.32
2018-12-27T05:50:05.375Z,-1.31
2018-12-27T05:51:05.215Z,-1.29
2018-12-27T05:52:05.220Z,-1.28
2018-12-27T05:53:05.145Z,-1.27
2018-12-27T05:54:05.237Z,-1.28
2018-12-27T05:55:05.289Z,-1.29
2018-12-27T05:56:05.382Z,-1.29
2018-12-27T05:57:05.409Z,-1.34
2018-12-27T05:58:05.277Z,-1.31
2018-12-27T05:59:05.145Z,-1.31
2018-12-27T06:00:05.285Z,-1.33
2018-12-27T06:01:05.495Z,-1.32
2018-12-27T06:02:05.152Z,-1.27
2018-12-27T06:03:05.654Z,-1.29
2018-12-27T06:04:05.501Z,-1.28
2018-12-27T06:05:05.525Z,-1.28
2018-12-27T06:06:05.259Z,-1.25
2018-12-27T06:07:05.377Z,-1.27
2018-12-27T06:08:05.193Z,-1.29
2018-12-27T06:09:05.310Z,-1.32
2018-12-27T06:10:05.088Z,-1.37
2018-12-27T06:11:05.339Z,-1.28
2018-12-27T06:12:05.131Z,-1.28
2018-12-27T06:13:05.240Z,-1.27
2018-12-27T06:14:05.284Z,-1.26
2018-12-27T06:15:05.139Z,-1.29
2018-12-27T06:16:05.497Z,-1.31
2018-12-27T06:17:05.367Z,-1.31
2018-12-27T06:18:05.308Z,-1.28
2018-12-27T06:19:05.318Z,-1.24
2018-12-27T06:20:05.084Z,-1.24
2018-12-27T06:21:05.078Z,-1.3
2018-12-27T06:22:05.102Z,-1.35
2018-12-27T06:23:05.418Z,-1.29
2018-12-27T06:24:05.243Z,-1.21
2018-12-27T06:25:05.297Z,-1.17
2018-12-27T06:26:05.148Z,-1.19
2018-12-27T06:27:05.375Z,-1.18
2018-12-27T06:28:05.071Z,-1.19
2018-12-27T06:29:05.579Z,-1.18
2018-12-27T06:30:05.207Z,-1.14
2018-12-27T06:31:05.562Z,-1.15
2018-12-27T06:32:05.323Z,-1.12
2018-12-27T06:33:05.401Z,-1.14
2018-12-27T06:34:05.287Z,-1.12
2018-12-27T06:35:05.360Z,-1.14
2018-12-27T06:36:05.248Z,-1.17
2018-12-27T06:37:05.496Z,-1.21
2018-12-27T06:38:05.112Z,-1.21
2018-12-27T06:39:05.104Z,-1.23
2018-12-27T06:40:05.139Z,-1.18
2018-12-27T06:41:05.158Z,-1.18
2018-12-27T06:42:05.173Z,-1.13
2018-12-27T06:43:05.131Z,-1.15
2018-12-27T06:44:05.363Z,-1.18
2018-12-27T06:45:05.230Z,-1.18
2018-12-27T06:46:05.387Z,-1.17
2018-12-27T06:47:05.108Z,-1.23
2018-12-27T06:48:05.360Z,-1.17
2018-12-27T06:49:05.205Z,-1.16
2018-12-27T06:50:05.120Z,-1.12
2018-12-27T06:51:05.226Z,-1.14
2018-12-27T06:52:05.210Z,-1.13
2018-12-27T06:53:05.432Z,-1.18
2018-12-27T06:54:05.259Z,-1.15
2018-12-27T06:55:05.094Z,-1.11
2018-12-27T06:56:05.269Z,-1.13
2018-12-27T06:57:05.441Z,-1.07
2018-12-27T06:58:05.092Z,-1.08
2018-12-27T06:59:05.201Z,-1.11
2018-12-27T07:00:05.656Z,-1.11
2018-12-27T07:01:05.557Z,-1.12
2018-12-27T07:02:05.922Z,-1.12
2018-12-27T07:03:05.058Z,-1.12
2018-12-27T07:04:05.430Z,-1.1
2018-12-27T07:05:05.294Z,-1.12
2018-12-27T07:06:05.223Z,-1.11
2018-12-27T07:07:05.462Z,-1.14
2018-12-27T07:08:05.055Z,-1.14
2018-12-27T07:09:05.283Z,-1.18
2018-12-27T07:10:05.888Z,-1.19
2018-12-27T07:11:05.365Z,-1.2
2018-12-27T07:12:05.859Z,-1.18
2018-12-27T07:13:05.401Z,-1.21
2018-12-27T07:14:05.455Z,-1.25
2018-12-27T07:15:05.018Z,-1.26
2018-12-27T07:16:05.267Z,-1.25
2018-12-27T07:17:05.280Z,-1.23
2018-12-27T07:18:05.193Z,-1.26
2018-12-27T07:19:05.046Z,-1.25
2018-12-27T07:20:05.210Z,-1.29
2018-12-27T07:21:05.865Z,-1.27
2018-12-27T07:22:05.306Z,-1.25
2018-12-27T07:23:05.484Z,-1.29
2018-12-27T07:24:05.322Z,-1.3
2018-12-27T07:25:05.079Z,-1.31
2018-12-27T07:26:05.570Z,-1.33
2018-12-27T07:27:05.332Z,-1.38
2018-12-27T07:28:05.251Z,-1.36
2018-12-27T07:29:05.578Z,-1.33
2018-12-27T07:30:05.212Z,-1.33
2018-12-27T07:31:05.251Z,-1.37
2018-12-27T07:32:05.024Z,-1.37
2018-12-27T07:33:05.300Z,-1.34
2018-12-27T07:34:05.186Z,-1.33
2018-12-27T07:35:05.367Z,-1.34
2018-12-27T07:36:05.205Z,-1.24
2018-12-27T07:37:05.844Z,-1.2
2018-12-27T07:38:05.335Z,-1.27
2018-12-27T07:39:05.206Z,-1.29
2018-12-27T07:40:05.585Z,-1.28
2018-12-27T07:41:04.970Z,-1.27
2018-12-27T07:42:05.313Z,-1.26
2018-12-27T07:43:05.814Z,-1.26
2018-12-27T07:44:05.379Z,-1.25
2018-12-27T07:45:05.081Z,-1.25
2018-12-27T07:46:11.332Z,-1.28
2018-12-27T07:47:05.941Z,-1.31
2018-12-27T07:48:04.982Z,-1.32
2018-12-27T07:49:05.423Z,-1.31
2018-12-27T07:50:05.022Z,-1.36
2018-12-27T07:51:05.092Z,-1.38
2018-12-27T07:52:05.292Z,-1.38
2018-12-27T07:53:05.100Z,-1.35
2018-12-27T07:54:05.519Z,-1.34
2018-12-27T07:55:04.980Z,-1.38
2018-12-27T07:56:05.232Z,-1.41
2018-12-27T07:57:05.083Z,-1.38
2018-12-27T07:58:05.245Z,-1.38
2018-12-27T07:59:05.350Z,-1.36
2018-12-27T08:00:05.156Z,-1.38
2018-12-27T08:01:05.321Z,-1.37
2018-12-27T08:02:05.239Z,-1.45
2018-12-27T08:03:04.998Z,-1.45
2018-12-27T08:04:05.056Z,-1.46
2018-12-27T08:05:05.225Z,-1.4
2018-12-27T08:06:05.278Z,-1.41
2018-12-27T08:07:05.176Z,-1.46
2018-12-27T08:08:05.434Z,-1.51
2018-12-27T08:09:05.355Z,-1.6
2018-12-27T08:10:05.287Z,-1.57
2018-12-27T08:11:05.334Z,-1.52
2018-12-27T08:12:04.957Z,-1.48
2018-12-27T08:13:05.439Z,-1.48
2018-12-27T08:14:04.962Z,-1.57
2018-12-27T08:15:05.792Z,-1.57
2018-12-27T08:16:04.932Z,-1.55
2018-12-27T08:17:04.943Z,-1.53
2018-12-27T08:18:05.403Z,-1.51
2018-12-27T08:19:05.018Z,-1.53
2018-12-27T08:20:05.243Z,-1.5
2018-12-27T08:21:05.125Z,-1.51
2018-12-27T08:22:05.161Z,-1.55
2018-12-27T08:23:05.089Z,-1.57
2018-12-27T08:24:05.181Z,-1.54
2018-12-27T08:25:05.109Z,-1.52
2018-12-27T08:26:04.921Z,-1.48
2018-12-27T08:27:05.147Z,-1.48
2018-12-27T08:28:05.075Z,-1.49
2018-12-27T08:29:04.978Z,-1.5
2018-12-27T08:30:05.060Z,-1.51
2018-12-27T08:31:04.957Z,-1.56
2018-12-27T08:32:05.113Z,-1.55
2018-12-27T08:33:04.971Z,-1.5
2018-12-27T08:34:05.101Z,-1.47
2018-12-27T08:35:11.937Z,-1.5
2018-12-27T08:36:05.106Z,-1.53
2018-12-27T08:37:05.081Z,-1.52
2018-12-27T08:38:05.116Z,-1.57
2018-12-27T08:39:05.225Z,-1.55
2018-12-27T08:40:04.895Z,-1.5
2018-12-27T08:41:05.083Z,-1.58
2018-12-27T08:42:05.768Z,-1.63
2018-12-27T08:43:05.052Z,-1.56
2018-12-27T08:44:05.113Z,-1.5
2018-12-27T08:45:05.138Z,-1.46
2018-12-27T08:46:05.034Z,-1.43
2018-12-27T08:47:05.299Z,-1.48
2018-12-27T08:48:05.264Z,-1.39
2018-12-27T08:49:05.133Z,-1.37
2018-12-27T08:50:05.022Z,-1.38
2018-12-27T08:51:05.095Z,-1.37
2018-12-27T08:52:05.002Z,-1.4
2018-12-27T08:53:04.886Z,-1.37
2018-12-27T08:54:05.213Z,-1.35
2018-12-27T08:55:04.925Z,-1.33
2018-12-27T08:56:05.060Z,-1.37
2018-12-27T08:57:05.066Z,-1.4
2018-12-27T08:58:05.119Z,-1.42
2018-12-27T08:59:05.142Z,-1.42
2018-12-27T09:00:04.976Z,-1.42
2018-12-27T09:01:05.151Z,-1.42
2018-12-27T09:02:04.940Z,-1.47
2018-12-27T09:03:05.281Z,-1.44
2018-12-27T09:04:04.900Z,-1.41
2018-12-27T09:05:05.125Z,-1.46
2018-12-27T09:06:04.853Z,-1.39
2018-12-27T09:07:05.012Z,-1.39
2018-12-27T09:08:04.903Z,-1.37
2018-12-27T09:09:05.106Z,-1.34
2018-12-27T09:10:05.082Z,-1.42
2018-12-27T09:11:04.882Z,-1.43
2018-12-27T09:12:05.251Z,-1.38
2018-12-27T09:13:05.183Z,-1.42
2018-12-27T09:14:05.096Z,-1.36
2018-12-27T09:15:05.269Z,-1.41
2018-12-27T09:16:04.869Z,-1.38
2018-12-27T09:17:05.069Z,-1.39
2018-12-27T09:18:04.911Z,-1.58
2018-12-27T09:19:05.068Z,-1.48
2018-12-27T09:20:05.212Z,-1.44
2018-12-27T09:21:05.072Z,-1.49
2018-12-27T09:22:04.893Z,-1.41
2018-12-27T09:23:04.834Z,-1.4
2018-12-27T09:24:05.351Z,-1.39
2018-12-27T09:25:05.133Z,-1.33
2018-12-27T09:26:05.008Z,-1.35
2018-12-27T09:27:05.036Z,-1.39
2018-12-27T09:28:04.875Z,-1.31
2018-12-27T09:29:05.105Z,-1.3
2018-12-27T09:30:05.142Z,-1.27
2018-12-27T09:31:04.942Z,-1.24
2018-12-27T09:32:05.123Z,-1.3
2018-12-27T09:33:04.873Z,-1.29
2018-12-27T09:34:04.823Z,-1.3
2018-12-27T09:35:05.089Z,-1.27
2018-12-27T09:36:04.859Z,-1.27
2018-12-27T09:37:05.053Z,-1.32
2018-12-27T09:38:04.993Z,-1.29
2018-12-27T09:39:04.984Z,-1.28
2018-12-27T09:40:04.938Z,-1.39
2018-12-27T09:41:06.103Z,-1.36
2018-12-27T09:42:04.882Z,-1.35
2018-12-27T09:43:04.883Z,-1.36
2018-12-27T09:44:04.894Z,-1.3
2018-12-27T09:45:04.817Z,-1.31
2018-12-27T09:46:05.030Z,-1.32
2018-12-27T09:47:04.836Z,-1.29
2018-12-27T09:48:05.095Z,-1.36
2018-12-27T09:49:05.074Z,-1.49
2018-12-27T09:50:04.873Z,-1.39
2018-12-27T09:51:05.322Z,-1.36
2018-12-27T09:52:05.098Z,-1.38
2018-12-27T09:53:05.081Z,-1.4
2018-12-27T09:54:05.173Z,-1.35
2018-12-27T09:55:05.161Z,-1.45
2018-12-27T09:56:05.366Z,-1.39
2018-12-27T09:57:04.850Z,-1.4
2018-12-27T09:58:05.066Z,-1.36
2018-12-27T09:59:05.091Z,-1.31
2018-12-27T10:00:04.803Z,-1.4
2018-12-27T10:01:08.072Z,-1.39
2018-12-27T10:02:04.790Z,-1.39
2018-12-27T10:03:05.492Z,-1.33
2018-12-27T10:04:04.799Z,-1.33
2018-12-27T10:05:05.203Z,-1.26
2018-12-27T10:06:04.901Z,-1.21
2018-12-27T10:07:05.076Z,-1.17
2018-12-27T10:08:05.921Z,-1.19
2018-12-27T10:09:04.851Z,-1.21
2018-12-27T10:10:04.949Z,-1.17
2018-12-27T10:11:04.849Z,-1.32
2018-12-27T10:12:04.816Z,-1.41
2018-12-27T10:13:04.847Z,-1.34
2018-12-27T10:14:04.829Z,-1.33
2018-12-27T10:15:05.174Z,-1.34
2018-12-27T10:16:05.004Z,-1.31
2018-12-27T10:17:04.815Z,-1.29
2018-12-27T10:18:07.957Z,-1.28
2018-12-27T10:19:04.864Z,-1.27
2018-12-27T10:20:04.791Z,-1.27
2018-12-27T10:21:05.117Z,-1.35
2018-12-27T10:22:04.915Z,-1.32
2018-12-27T10:23:05.512Z,-1.32
2018-12-27T10:24:05.143Z,-1.28
2018-12-27T10:25:04.871Z,-1.28
2018-12-27T10:26:04.814Z,-1.29
2018-12-27T10:27:05.573Z,-1.23
2018-12-27T10:28:04.770Z,-1.28
2018-12-27T10:29:04.871Z,-1.23
2018-12-27T10:30:05.202Z,-1.25
2018-12-27T10:31:04.886Z,-1.19
2018-12-27T10:32:05.003Z,-1.25
2018-12-27T10:33:04.963Z,-1.24
2018-12-27T10:34:05.820Z,-1.26
2018-12-27T10:35:04.809Z,-1.24
2018-12-27T10:36:04.882Z,-1.25
2018-12-27T10:37:08.289Z,-1.25
2018-12-27T10:38:05.853Z,-1.3
2018-12-27T10:39:05.844Z,-1.3
2018-12-27T10:40:05.557Z,-1.26
2018-12-27T10:41:04.984Z,-1.29
2018-12-27T10:42:05.025Z,-1.25
2018-12-27T10:43:05.544Z,-1.26
2018-12-27T10:44:04.771Z,-1.27
2018-12-27T10:45:04.842Z,-1.23
2018-12-27T10:46:05.584Z,-1.23
2018-12-27T10:47:05.078Z,-1.26
2018-12-27T10:48:06.017Z,-1.3
2018-12-27T10:49:04.872Z,-1.23
2018-12-27T10:50:04.765Z,-1.2
2018-12-27T10:51:04.765Z,-1.22
2018-12-27T10:52:04.753Z,-1.24
2018-12-27T10:53:04.709Z,-1.38
2018-12-27T10:54:04.854Z,-1.27
2018-12-27T10:55:04.809Z,-1.22
2018-12-27T10:56:05.164Z,-1.2
2018-12-27T10:57:04.738Z,-1.38
2018-12-27T10:58:04.869Z,-1.37
2018-12-27T10:59:04.752Z,-1.33
2018-12-27T11:00:04.759Z,-1.31
2018-12-27T11:01:04.769Z,-1.31
2018-12-27T11:02:04.761Z,-1.31
2018-12-27T11:03:04.924Z,-1.27
2018-12-27T11:04:04.807Z,-1.23
2018-12-27T11:05:04.754Z,-1.26
2018-12-27T11:06:04.839Z,-1.2
2018-12-27T11:07:04.708Z,-1.19
2018-12-27T11:08:04.740Z,-1.12
2018-12-27T11:09:04.731Z,-1.14
2018-12-27T11:10:04.712Z,-1.17
2018-12-27T11:11:04.797Z,-1.2
2018-12-27T11:12:04.886Z,-1.24
2018-12-27T11:13:04.921Z,-1.18
2018-12-27T11:14:04.877Z,-1.16
2018-12-27T11:15:05.018Z,-1.18
2018-12-27T11:16:04.747Z,-1.16
2018-12-27T11:17:04.779Z,-1.17
2018-12-27T11:18:04.822Z,-1.08
2018-12-27T11:19:04.956Z,-1.13
2018-12-27T11:20:04.706Z,-1.34
2018-12-27T11:21:04.660Z,-1.29
2018-12-27T11:22:04.939Z,-1.35
2018-12-27T11:23:04.696Z,-1.27
2018-12-27T11:24:04.719Z,-1.37
2018-12-27T11:25:04.669Z,-1.39
2018-12-27T11:26:04.847Z,-1.31
2018-12-27T11:27:04.827Z,-1.29
2018-12-27T11:28:04.644Z,-1.27
2018-12-27T11:29:04.802Z,-1.25
2018-12-27T11:30:04.723Z,-1.22
2018-12-27T11:31:04.784Z,-1.27
2018-12-27T11:32:05.033Z,-1.28
2018-12-27T11:33:04.955Z,-1.21
2018-12-27T11:34:04.631Z,-1.28
2018-12-27T11:35:04.691Z,-1.23
2018-12-27T11:36:05.336Z,-1.3
2018-12-27T11:37:06.326Z,-1.31
2018-12-27T11:38:04.802Z,-1.25
2018-12-27T11:39:05.040Z,-1.26
2018-12-27T11:40:05.054Z,-1.22
2018-12-27T11:41:05.055Z,-1.18
2018-12-27T11:42:05.170Z,-1.13
2018-12-27T11:43:04.966Z,-1.22
2018-12-27T11:44:04.758Z,-1.24
2018-12-27T11:45:04.832Z,-1.28
2018-12-27T11:46:04.898Z,-1.25
2018-12-27T11:47:04.880Z,-1.27
2018-12-27T11:48:04.956Z,-1.26
2018-12-27T11:49:04.648Z,-1.18
2018-12-27T11:50:04.816Z,-1.25
2018-12-27T11:51:04.923Z,-1.16
2018-12-27T11:52:04.851Z,-1.17
2018-12-27T11:53:04.599Z,-1.16
2018-12-27T11:54:05.039Z,-1.17
2018-12-27T11:55:04.748Z,-1.15
2018-12-27T11:56:04.659Z,-1.13
2018-12-27T11:57:04.816Z,-1.13
2018-12-27T11:58:04.828Z,-1.14
2018-12-27T11:59:04.733Z,-1.19
2018-12-27T12:00:04.741Z,-1.18
2018-12-27T12:01:04.690Z,-1.19
2018-12-27T12:02:04.753Z,-1.12
2018-12-27T12:03:05.112Z,-1.16
2018-12-27T12:04:04.906Z,-1.2
2018-12-27T12:05:04.658Z,-1.21
2018-12-27T12:06:05.083Z,-1.11
2018-12-27T12:07:04.667Z,-1.14
2018-12-27T12:08:04.851Z,-1.18
2018-12-27T12:09:04.686Z,-1.29
2018-12-27T12:10:04.872Z,-1.18
2018-12-27T12:11:04.715Z,-1.22
2018-12-27T12:12:04.868Z,-1.13
2018-12-27T12:13:04.679Z,-1.18
2018-12-27T12:14:05.003Z,-1.14
2018-12-27T12:15:04.929Z,-1.17
2018-12-27T12:16:04.874Z,-1.13
2018-12-27T12:17:05.290Z,-1.12
2018-12-27T12:18:04.808Z,-1.08
2018-12-27T12:19:04.622Z,-1.14
2018-12-27T12:20:04.812Z,-1.15
2018-12-27T12:21:04.784Z,-1.19
2018-12-27T12:22:04.618Z,-1.15
2018-12-27T12:23:04.800Z,-1.14
2018-12-27T12:24:04.839Z,-1.18
2018-12-27T12:25:04.707Z,-1.16
2018-12-27T12:26:04.689Z,-1.16
2018-12-27T12:27:04.720Z,-1.19
2018-12-27T12:28:05.027Z,-1.13
2018-12-27T12:29:04.975Z,-1.2
2018-12-27T12:30:04.693Z,-1.22
2018-12-27T12:31:05.093Z,-1.25
2018-12-27T12:32:04.743Z,-1.23
2018-12-27T12:33:04.725Z,-1.25
2018-12-27T12:34:04.999Z,-1.21
2018-12-27T12:35:04.711Z,-1.23
2018-12-27T12:36:11.242Z,-1.22
2018-12-27T12:37:04.597Z,-1.24
2018-12-27T12:38:04.589Z,-1.23
2018-12-27T12:39:04.590Z,-1.32
2018-12-27T12:40:04.623Z,-1.37
2018-12-27T12:41:04.672Z,-1.34
2018-12-27T12:42:04.776Z,-1.26
2018-12-27T12:43:04.671Z,-1.3
2018-12-27T12:44:04.692Z,-1.34
2018-12-27T12:45:04.712Z,-1.35
2018-12-27T12:46:04.620Z,-1.28
2018-12-27T12:47:04.578Z,-1.29
2018-12-27T12:48:04.585Z,-1.26
2018-12-27T12:49:04.617Z,-1.24
2018-12-27T12:50:04.589Z,-1.25
2018-12-27T12:51:04.565Z,-1.2
2018-12-27T12:52:04.673Z,-1.19
2018-12-27T12:53:04.578Z,-1.17
2018-12-27T12:54:04.982Z,-1.16
2018-12-27T12:55:04.731Z,-1.11